x

Ps-1126 Tabs J (42044) Weather Station

10:00am - Thu 25th May 2017 All times are CDT. -5 hours from GMT.

  • Wind
    18mph, 20mph gusts
  • Sea Temp 79°f
  • Air Temp 78°f
  • Sea Pressure 1010.5mb
  • Ps-1126 Tabs J
  • Ps-1126 Tabs J

More Historic Weather Station data

Upgrade to MSW Pro to gain access to the past 30 days of data for over 8000 Wavebouys and Weather Stations around the globe.

Join Pro

Comparision Forecast

View Surf forecast
   
Thu 05/25 10:00am 18 20 mph 1010.5mb 79f 78f
9:00am 16 20 mph 1010mb 79f 78f
8:00am 18 20 mph 1009.7mb 79f 77f
7:00am 18 20 mph 1009.3mb 79f 77f
6:00am 18 22 mph 1008.9mb 79f 77f
5:00am 20 25 mph 1008.8mb 79f 76f
3:00am 18 22 mph 1009.1mb 79f 76f
2:00am 18 22 mph 1009.5mb 79f 76f
1:00am 18 20 mph 1009.5mb 79f 76f
12:00am 13 18 mph 1009.8mb 79f 76f
Wed 05/24 11:00pm 11 16 mph 1009.8mb 79f 76f
6:00pm 11 16 mph 1008.5mb 80f 74f
5:00pm 13 18 mph 1009mb 80f 74f
4:00pm 11 13 mph 1010.3mb 80f 74f
3:00pm 11 16 mph 1011.2mb 80f 73f
2:00pm 13 16 mph 1012mb 80f 72f
1:00pm 13 18 mph 1012.8mb 79f 72f
12:00pm 13 18 mph 1013.7mb 79f 71f
11:00am 20 25 mph 1014.1mb 79f 69f
10:00am 20 25 mph 1013.5mb 80f 69f
9:00am 22 27 mph 1013.2mb 79f 69f
8:00am 20 25 mph 1012.4mb 80f 71f
7:00am 16 20 mph 1011.6mb 80f 73f
6:00am 16 20 mph 1011mb 80f 73f
5:00am 20 25 mph 1010.9mb 80f 74f
4:00am 22 27 mph 1011.1mb 80f 76f
3:00am 20 25 mph 1010.8mb 80f 76f
1:00am 22 27 mph 1010.9mb 81f 75f
12:00am 25 29 mph 1010.6mb 81f 74f
Tue 05/23 6:00pm 2 4 mph 1006.6mb 82f 79f
5:00pm 4 9 mph 1007.5mb 82f 78f
3:00pm 9 11 mph 1008.5mb 82f 79f
1:00pm 11 13 mph 1008.6mb 82f 78f
11:00am 13 20 mph 1009.9mb 81f 79f
10:00am 9 9 mph 1009.5mb 81f 78f
9:00am 11 13 mph 1008.8mb 81f 75f
7:00am 4 7 mph 1009.1mb 81f 79f
6:00am 4 4 mph 1007.7mb 81f 79f
5:00am 2 4 mph 1008.4mb 81f 79f
4:00am 4 7 mph 1008.9mb 81f 79f
3:00am 4 7 mph 1008.8mb 81f 79f
2:00am 7 9 mph 1009.1mb 81f 79f
1:00am 4 4 mph 1010.1mb 81f 80f
12:00am 4 7 mph 1010.3mb 81f 79f
Mon 05/22 11:00pm 7 7 mph 1010.2mb 81f 79f
6:00pm 13 18 mph 1008.1mb 81f 80f
5:00pm 13 18 mph 1008.8mb 81f 80f
4:00pm 16 18 mph 1009mb 81f 80f
10:00am 16 18 mph 1012.7mb 80f 80f
9:00am 13 18 mph 1012.9mb 80f 79f
7:00am 13 18 mph 1012.1mb 80f 80f
6:00am 13 16 mph 1011.7mb 80f 79f
5:00am 18 20 mph 1011.5mb 81f 79f
4:00am 18 22 mph 1012.2mb 81f 79f
3:00am 16 20 mph 1012.3mb 81f 79f
2:00am 13 16 mph 1013.3mb 81f 80f
1:00am 9 13 mph 1014.6mb 81f 80f
12:00am 9 11 mph 1014.4mb 81f 80f
Sun 05/21 11:00pm 9 11 mph 1013.9mb 81f 80f
6:00pm 11 13 mph 1011.6mb 81f 80f